Time;durP1;ratioP1;P1;durP2;ratioP2;P2;SDS_P1;SDS_P2;PMS_P1;PMS_P2;Temp;Humidity;BMP_temperature;BMP_pressure;BME280_temperature;BME280_humidity;BME280_pressure;Samples;Min_cycle;Max_cycle;Signal;HPM_P1;HPM_P2
2023/05/28 00:03:56;;;;;;;7.90;3.90;;;;;;;13.49;53.42;99572.95;223713;182;139841;-64
2023/05/28 00:09:00;;;;;;;5.30;3.60;;;;;;;13.41;53.59;99570.23;223796;182;136653;-63
2023/05/28 00:14:03;;;;;;;6.60;4.10;;;;;;;13.33;53.82;99567.23;223761;182;143458;-64
2023/05/28 00:19:07;;;;;;;5.50;3.50;;;;;;;13.25;53.77;99569.14;223693;182;139346;-63
2023/05/28 00:24:10;;;;;;;9.20;4.00;;;;;;;13.19;54.01;99565.59;223702;182;137012;-66
2023/05/28 00:29:13;;;;;;;7.10;4.30;;;;;;;13.13;54.34;99561.86;223709;182;145370;-65
2023/05/28 00:34:16;;;;;;;6.70;3.60;;;;;;;13.07;54.47;99557.98;223562;183;140251;-63
2023/05/28 00:39:21;;;;;;;5.50;3.40;;;;;;;13.01;54.84;99562.48;223682;182;136978;-66
2023/05/28 00:44:24;;;;;;;8.80;4.00;;;;;;;12.93;55.16;99557.45;223682;183;145208;-64
2023/05/28 00:49:28;;;;;;;8.90;3.70;;;;;;;12.86;55.42;99545.45;223512;184;139312;-63
2023/05/28 00:54:32;;;;;;;8.20;3.90;;;;;;;12.78;55.59;99542.20;223662;183;137440;-65
2023/05/28 00:59:36;;;;;;;9.20;4.10;;;;;;;12.70;55.79;99538.94;223591;183;146322;-63
2023/05/28 01:04:39;;;;;;;7.50;4.00;;;;;;;12.63;56.04;99536.02;223581;183;139042;-65
2023/05/28 01:09:43;;;;;;;8.70;3.50;;;;;;;12.55;56.21;99529.73;223647;183;139390;-64
2023/05/28 01:14:47;;;;;;;8.10;3.90;;;;;;;12.48;56.40;99525.73;223702;181;145441;-64
2023/05/28 01:19:50;;;;;;;7.60;3.70;;;;;;;12.42;56.61;99525.39;223731;181;138552;-66
2023/05/28 01:24:54;;;;;;;6.40;3.70;;;;;;;12.38;56.50;99527.08;223635;181;137635;-63
2023/05/28 01:29:57;;;;;;;6.20;3.70;;;;;;;12.29;56.56;99524.39;223686;181;145841;-64
2023/05/28 01:35:08;;;;;;;6.40;3.60;;;;;;;12.25;56.74;99524.63;222327;182;138250;-64
2023/05/28 01:40:14;;;;;;;6.00;3.50;;;;;;;12.20;56.88;99525.14;223613;182;136483;-64
2023/05/28 01:45:18;;;;;;;;;;;;;;;12.16;56.90;99518.66;223764;182;145362;-64
2023/05/28 01:50:22;;;;;;;7.50;3.60;;;;;;;12.09;56.84;99516.40;223688;181;139368;-64
2023/05/28 01:55:26;;;;;;;9.50;4.10;;;;;;;12.03;56.88;99514.95;223631;181;136527;-63
2023/05/28 02:00:30;;;;;;;7.50;4.20;;;;;;;12.00;57.12;99511.56;223622;182;147838;-64
2023/05/28 02:05:33;;;;;;;10.40;3.90;;;;;;;11.94;57.11;99507.00;223588;181;138216;-62
2023/05/28 02:10:36;;;;;;;6.10;3.80;;;;;;;11.89;56.96;99513.00;223711;181;137241;-63
2023/05/28 02:15:40;;;;;;;8.70;3.70;;;;;;;11.80;56.92;99511.14;223610;181;145262;-64
2023/05/28 02:20:43;;;;;;;6.20;3.50;;;;;;;11.74;57.15;99508.70;223640;182;138392;-64
2023/05/28 02:25:46;;;;;;;9.00;3.90;;;;;;;11.69;57.45;99511.97;223730;182;136570;-64
2023/05/28 02:30:49;;;;;;;8.30;3.80;;;;;;;11.65;57.48;99516.14;223679;182;146972;-65
2023/05/28 02:35:53;;;;;;;10.90;3.90;;;;;;;11.59;57.41;99516.31;223646;182;138293;-64
2023/05/28 02:40:58;;;;;;;10.30;3.70;;;;;;;11.53;57.75;99515.02;223651;181;138745;-63
2023/05/28 02:46:01;;;;;;;12.00;4.20;;;;;;;11.49;57.90;99514.59;223541;181;145355;-64
2023/05/28 02:51:05;;;;;;;8.80;3.80;;;;;;;11.44;57.95;99514.00;223671;181;138419;-64
2023/05/28 02:56:22;;;;;;;10.20;3.70;;;;;;;11.35;57.95;99512.35;223646;182;140000;-64
2023/05/28 03:01:26;;;;;;;7.90;3.60;;;;;;;11.28;58.20;99505.85;223681;181;145837;-63
2023/05/28 03:06:36;;;;;;;11.10;3.80;;;;;;;11.23;58.49;99504.70;223667;181;138462;-64
2023/05/28 03:33:35;;;;;;;6.50;3.50;;;;;;;11.22;59.00;99500.70;222127;192;666032;-64
2023/05/28 03:38:38;;;;;;;8.10;3.00;;;;;;;11.22;59.43;99493.96;223514;184;136392;-63
2023/05/28 03:43:41;;;;;;;5.80;2.90;;;;;;;11.25;59.20;99492.19;223663;182;144935;-66
2023/05/28 03:48:45;;;;;;;7.10;3.30;;;;;;;11.35;59.13;99490.70;223686;182;138118;-65
2023/05/28 03:53:48;;;;;;;6.20;2.80;;;;;;;11.48;58.68;99486.94;223818;182;136318;-63
2023/05/28 03:58:51;;;;;;;5.90;2.80;;;;;;;11.61;58.38;99484.39;223731;182;144494;-64
2023/05/28 04:03:55;;;;;;;8.30;2.80;;;;;;;11.72;57.97;99490.84;223731;182;138476;-63
2023/05/28 04:09:02;;;;;;;4.10;2.70;;;;;;;11.82;57.39;99485.09;223741;182;137124;-65
2023/05/28 04:14:09;;;;;;;5.40;2.50;;;;;;;11.94;56.82;99480.48;223750;182;143267;-63
2023/05/28 04:19:13;;;;;;;5.00;2.50;;;;;;;12.05;56.38;99487.30;223754;182;138186;-64
2023/05/28 04:24:16;;;;;;;8.50;2.80;;;;;;;12.15;56.31;99488.80;223686;182;137029;-64
2023/05/28 04:29:23;;;;;;;4.80;2.80;;;;;;;12.24;56.28;99488.80;223706;183;145082;-62
2023/05/28 04:34:27;;;;;;;9.70;2.60;;;;;;;12.35;56.21;99488.14;223629;182;139806;-63
2023/05/28 04:39:30;;;;;;;4.10;2.30;;;;;;;12.45;56.23;99489.98;223763;182;136153;-64
2023/05/28 04:44:33;;;;;;;7.90;2.70;;;;;;;12.57;55.94;99487.06;223766;181;144979;-63
2023/05/28 04:49:40;;;;;;;;;;;;;;;12.69;55.56;99487.04;223662;181;138420;-63
2023/05/28 04:54:46;;;;;;;5.20;2.70;;;;;;;12.77;55.20;99484.70;223839;181;130050;-64
2023/05/28 04:59:49;;;;;;;7.10;2.80;;;;;;;12.86;55.02;99486.11;223708;181;146198;-63
2023/05/28 05:04:52;;;;;;;7.80;2.70;;;;;;;12.98;55.11;99491.59;223642;181;138903;-65
2023/05/28 05:09:57;;;;;;;5.20;2.90;;;;;;;13.06;54.82;99487.82;223750;181;138978;-64
2023/05/28 05:15:00;;;;;;;7.00;2.90;;;;;;;13.17;54.39;99483.74;223691;181;145314;-64
2023/05/28 05:20:04;;;;;;;6.60;2.80;;;;;;;13.24;54.02;99484.59;223675;178;138290;-63
2023/05/28 05:25:09;;;;;;;6.50;2.90;;;;;;;13.32;53.99;99491.20;223659;181;136712;-66
2023/05/28 05:30:16;;;;;;;6.40;2.80;;;;;;;13.40;53.57;99486.35;223692;181;145001;-66
2023/05/28 05:35:19;;;;;;;4.80;3.10;;;;;;;13.47;53.33;99482.52;223656;182;140210;-66
2023/05/28 05:40:49;;;;;;;5.40;2.80;;;;;;;13.54;53.16;99474.20;223569;181;137888;-67
2023/05/28 05:46:12;;;;;;;7.20;3.60;;;;;;;13.60;53.21;99473.47;223749;181;146095;-68
2023/05/28 05:51:18;;;;;;;7.30;3.40;;;;;;;13.68;53.22;99473.12;223678;181;138977;-65
2023/05/28 05:56:21;;;;;;;6.60;3.20;;;;;;;13.74;53.07;99476.80;223766;181;136522;-67
2023/05/28 06:01:25;;;;;;;10.00;3.70;;;;;;;13.84;53.15;99478.08;223667;181;145647;-66
2023/05/28 06:06:28;;;;;;;6.30;3.30;;;;;;;13.92;53.01;99478.16;223555;182;140219;-67
2023/05/28 06:11:49;;;;;;;8.70;3.00;;;;;;;14.00;52.77;99473.23;223698;181;136341;-65
2023/05/28 06:16:53;;;;;;;6.20;3.10;;;;;;;14.08;52.96;99472.15;223636;181;147076;-67
2023/05/28 06:21:57;;;;;;;7.30;3.30;;;;;;;14.16;52.84;99473.90;223653;181;138256;-65
2023/05/28 06:27:00;;;;;;;10.40;3.20;;;;;;;14.25;52.68;99468.09;223697;181;136524;-66
2023/05/28 06:33:33;;;;;;;9.60;3.00;;;;;;;14.40;52.72;99474.33;221145;193;665692;-64
2023/05/28 06:38:37;;;;;;;8.30;3.00;;;;;;;14.46;52.59;99472.65;223953;181;136426;-63
2023/05/28 06:43:40;;;;;;;5.10;3.00;;;;;;;14.53;52.73;99470.56;223890;181;143978;-64
2023/05/28 06:49:15;;;;;;;8.20;2.90;;;;;;;14.65;52.76;99467.41;223985;180;139107;-66
2023/05/28 06:54:18;;;;;;;6.80;3.00;;;;;;;14.79;52.48;99470.53;223906;180;136435;-65
2023/05/28 06:59:23;;;;;;;10.00;3.10;;;;;;;14.93;52.46;99472.36;223798;181;143328;-68
2023/05/28 07:04:43;;;;;;;6.40;2.90;;;;;;;15.02;51.34;99467.76;224044;180;138250;-63
2023/05/28 07:09:51;;;;;;;5.00;2.60;;;;;;;15.12;51.53;99461.64;223946;180;136033;-66
2023/05/28 07:14:55;;;;;;;9.80;3.30;;;;;;;15.20;51.54;99458.05;223909;180;143152;-67
2023/05/28 07:19:58;;;;;;;5.40;3.30;;;;;;;15.35;51.46;99460.48;223878;182;138331;-66
2023/05/28 07:25:17;;;;;;;4.70;2.50;;;;;;;15.48;51.17;99454.52;223918;181;136548;-66
2023/05/28 07:33:35;;;;;;;9.30;2.70;;;;;;;15.62;50.63;99443.26;221681;193;666639;-64
2023/05/28 07:38:39;;;;;;;9.10;2.80;;;;;;;15.76;50.83;99444.30;223821;182;136880;-63
2023/05/28 07:43:44;;;;;;;5.50;1.90;;;;;;;15.93;49.38;99443.20;223730;182;146323;-66
2023/05/28 07:48:54;;;;;;;8.40;2.30;;;;;;;16.09;47.90;99436.58;223635;182;141134;-65
2023/05/28 07:54:03;;;;;;;10.10;3.60;;;;;;;16.20;48.39;99430.66;223702;182;136366;-64
2023/05/28 07:59:07;;;;;;;7.90;2.50;;;;;;;16.27;48.09;99424.92;223627;182;143119;-64
2023/05/28 08:04:12;;;;;;;4.20;2.30;;;;;;;16.43;47.69;99420.65;223607;179;138630;-64
2023/05/28 08:09:24;;;;;;;11.60;1.90;;;;;;;16.60;46.74;99420.37;223660;182;137380;-66
2023/05/28 08:14:29;;;;;;;7.40;2.20;;;;;;;16.89;49.36;99421.07;223622;182;144139;-66
2023/05/28 08:19:36;;;;;;;5.60;2.10;;;;;;;17.53;49.49;99411.57;223640;182;138703;-66
2023/05/28 08:24:44;;;;;;;5.00;2.10;;;;;;;17.92;47.08;99403.94;223638;182;136468;-65
2023/05/28 08:29:48;;;;;;;8.40;2.30;;;;;;;18.06;45.67;99403.98;223594;182;145164;-64
2023/05/28 08:34:51;;;;;;;4.70;1.90;;;;;;;18.29;45.37;99400.02;223497;182;139408;-65
2023/05/28 08:39:55;;;;;;;4.20;2.10;;;;;;;18.56;45.08;99398.30;223599;182;136792;-65
2023/05/28 08:44:58;;;;;;;7.40;1.90;;;;;;;18.81;43.93;99391.94;223547;183;145676;-64
2023/05/28 08:50:06;;;;;;;6.60;1.70;;;;;;;18.89;41.90;99395.02;223584;183;139768;-63
2023/05/28 08:55:22;;;;;;;4.70;2.00;;;;;;;18.98;41.51;99391.85;223603;183;136444;-65
2023/05/28 09:00:33;;;;;;;4.40;1.60;;;;;;;19.10;41.69;99388.08;223650;183;145909;-64
2023/05/28 09:06:12;;;;;;;3.60;1.70;;;;;;;19.14;39.38;99383.18;223478;183;141748;-66
2023/05/28 09:11:18;;;;;;;3.70;1.90;;;;;;;19.10;39.55;99385.03;223654;183;139315;-64
2023/05/28 09:16:24;;;;;;;2.70;1.70;;;;;;;19.02;39.68;99380.02;223628;183;145457;-63
2023/05/28 09:21:37;;;;;;;4.40;1.80;;;;;;;18.97;39.43;99377.94;223596;181;139997;-64
2023/05/28 09:26:43;;;;;;;5.40;1.90;;;;;;;19.04;38.74;99374.04;223769;182;136910;-65
2023/05/28 09:32:01;;;;;;;7.00;2.40;;;;;;;19.16;39.01;99356.77;223622;182;145360;-65
2023/05/28 09:37:06;;;;;;;15.00;1.90;;;;;;;19.26;38.45;99360.66;223574;181;140239;-65
2023/05/28 09:42:09;;;;;;;3.20;2.00;;;;;;;19.44;38.04;99361.67;223605;181;136578;-63
2023/05/28 09:47:17;;;;;;;14.80;2.70;;;;;;;19.54;37.84;99361.27;223629;181;145212;-63
2023/05/28 09:52:22;;;;;;;9.20;2.00;;;;;;;19.62;38.10;99349.35;223683;181;138965;-63
2023/05/28 09:57:30;;;;;;;4.60;2.20;;;;;;;19.69;37.99;99344.66;223723;181;136634;-65
2023/05/28 10:03:10;;;;;;;7.00;2.00;;;;;;;19.75;38.06;99346.75;223677;182;147128;-66
2023/05/28 10:08:16;;;;;;;6.10;2.10;;;;;;;19.89;37.93;99341.63;223675;182;141175;-65
2023/05/28 10:13:21;;;;;;;7.10;1.70;;;;;;;20.08;38.13;99332.91;223696;182;136891;-63
2023/05/28 10:18:25;;;;;;;7.70;1.90;;;;;;;20.21;37.97;99336.02;223660;181;146329;-64
2023/05/28 10:23:28;;;;;;;11.70;2.00;;;;;;;20.38;38.23;99335.20;223553;181;138402;-64
2023/05/28 10:28:32;;;;;;;6.60;1.70;;;;;;;20.63;39.32;99325.83;223666;181;137263;-65
2023/05/28 10:33:42;;;;;;;8.90;2.20;;;;;;;20.86;38.79;99321.88;223638;181;146921;-65
2023/05/28 10:38:58;;;;;;;7.70;2.30;;;;;;;21.02;38.36;99320.79;223694;181;139232;-64
2023/05/28 10:44:07;;;;;;;2.40;1.70;;;;;;;21.14;38.05;99316.92;223605;182;137770;-66
2023/05/28 10:49:18;;;;;;;98.60;78.80;;;;;;;21.30;38.20;99316.19;223639;181;146234;-64
2023/05/28 10:54:40;;;;;;;4.50;2.60;;;;;;;21.41;37.64;99318.84;222953;181;138432;-65
2023/05/28 10:59:51;;;;;;;18.10;9.90;;;;;;;21.54;37.77;99317.48;223642;181;137290;-64
2023/05/28 11:04:56;;;;;;;8.40;3.50;;;;;;;21.69;37.80;99315.17;223547;181;146290;-65
2023/05/28 11:10:00;;;;;;;;;;;;;;;21.84;37.20;99306.73;223590;181;138565;-66
2023/05/28 11:15:09;;;;;;;4.00;1.80;;;;;;;21.91;36.50;99300.67;223618;181;130091;-65
2023/05/28 11:20:24;;;;;;;4.70;2.00;;;;;;;22.01;36.45;99298.08;223574;181;146060;-64
2023/05/28 11:25:28;;;;;;;2.40;1.70;;;;;;;22.26;36.47;99298.09;223530;181;138430;-65
2023/05/28 11:30:32;;;;;;;6.00;2.10;;;;;;;22.43;35.52;99295.70;223660;181;138137;-63
2023/05/28 11:35:35;;;;;;;17.30;12.40;;;;;;;22.50;35.56;99294.95;223600;181;145415;-64
2023/05/28 11:40:38;;;;;;;9.00;3.70;;;;;;;22.63;35.52;99290.19;223667;181;138592;-65
2023/05/28 11:45:41;;;;;;;5.80;1.90;;;;;;;22.76;35.02;99285.01;223580;181;137472;-65
2023/05/28 11:50:45;;;;;;;4.60;2.00;;;;;;;22.91;34.95;99286.66;223695;181;146296;-68
2023/05/28 11:55:48;;;;;;;7.20;2.30;;;;;;;23.06;34.41;99274.20;223548;181;140068;-70
2023/05/28 12:00:55;;;;;;;5.10;1.80;;;;;;;23.15;34.67;99273.37;223605;181;136833;-67
2023/05/28 12:05:58;;;;;;;7.10;2.00;;;;;;;23.22;34.80;99264.98;223545;181;146013;-69
2023/05/28 12:11:02;;;;;;;4.30;1.80;;;;;;;23.33;34.54;99262.28;223560;181;141124;-69
2023/05/28 12:16:11;;;;;;;4.30;1.80;;;;;;;23.49;33.96;99261.44;223631;181;137030;-66
2023/05/28 12:21:18;;;;;;;6.70;2.30;;;;;;;23.49;34.34;99262.57;223680;181;145272;-67
2023/05/28 12:26:22;;;;;;;5.20;1.70;;;;;;;23.54;34.16;99260.31;223685;181;138922;-64
2023/05/28 12:31:31;;;;;;;7.90;2.20;;;;;;;23.70;33.59;99255.13;223672;181;137911;-68
2023/05/28 12:36:34;;;;;;;49.90;41.30;;;;;;;23.96;34.08;99259.78;223682;181;147635;-65
2023/05/28 12:41:37;;;;;;;4.90;2.90;;;;;;;24.04;34.27;99255.34;223665;181;138691;-66
2023/05/28 12:46:41;;;;;;;4.10;1.90;;;;;;;24.17;34.08;99248.65;223683;181;136855;-65
2023/05/28 12:51:46;;;;;;;4.60;1.90;;;;;;;24.04;33.24;99247.77;223673;181;145444;-67
2023/05/28 12:56:49;;;;;;;2.10;1.30;;;;;;;23.88;33.38;99243.98;223722;181;140423;-62
2023/05/28 13:01:55;;;;;;;6.90;1.80;;;;;;;24.04;33.24;99240.30;223711;181;136675;-65
2023/05/28 13:06:58;;;;;;;5.10;1.30;;;;;;;24.19;32.92;99237.83;223688;181;144553;-67
2023/05/28 13:12:02;;;;;;;5.60;1.80;;;;;;;24.31;32.87;99235.25;223696;181;138882;-65
2023/05/28 13:17:05;;;;;;;4.50;1.70;;;;;;;24.34;32.47;99224.73;223621;181;137347;-68
2023/05/28 13:22:10;;;;;;;3.70;1.80;;;;;;;24.26;32.27;99223.79;223768;181;145277;-64
2023/05/28 13:27:16;;;;;;;15.80;11.50;;;;;;;24.41;32.42;99225.59;223582;181;139606;-65
2023/05/28 13:33:29;;;;;;;3.00;1.90;;;;;;;24.64;31.96;99217.75;221614;192;666122;-68
2023/05/28 13:38:34;;;;;;;5.80;1.50;;;;;;;24.69;31.53;99217.48;223504;185;135582;-64
2023/05/28 13:43:37;;;;;;;129.40;110.10;;;;;;;24.84;31.51;99208.70;223689;183;145413;-69
2023/05/28 13:48:41;;;;;;;7.00;3.00;;;;;;;25.01;31.33;99205.34;223627;183;138497;-66
2023/05/28 13:53:45;;;;;;;3.00;1.70;;;;;;;25.01;30.62;99197.14;223737;182;136386;-66
2023/05/28 13:58:49;;;;;;;4.80;2.10;;;;;;;24.74;30.64;99193.22;223577;182;143278;-66
2023/05/28 14:03:52;;;;;;;10.10;6.60;;;;;;;24.62;30.96;99188.44;223730;182;138446;-66
2023/05/28 14:08:55;;;;;;;1.80;1.30;;;;;;;24.60;31.09;99182.54;223799;183;136421;-69
2023/05/28 14:13:58;;;;;;;9.90;4.40;;;;;;;24.74;31.49;99183.55;223657;182;143433;-68
2023/05/28 14:19:02;;;;;;;3.00;2.10;;;;;;;24.80;31.23;99179.77;223751;182;139945;-64
2023/05/28 14:24:05;;;;;;;4.00;1.60;;;;;;;24.76;31.05;99176.23;223649;182;137736;-65
2023/05/28 14:29:09;;;;;;;9.40;2.90;;;;;;;24.50;30.79;99171.48;223638;182;146150;-66
2023/05/28 14:34:12;;;;;;;6.70;3.00;;;;;;;24.13;30.89;99169.87;223568;183;140502;-66
2023/05/28 14:39:18;;;;;;;8.40;1.90;;;;;;;23.89;31.48;99162.86;223742;182;137104;-66
2023/05/28 14:44:26;;;;;;;4.80;1.90;;;;;;;23.73;31.77;99159.30;223575;181;145018;-66
2023/05/28 14:49:29;;;;;;;3.40;1.80;;;;;;;23.53;32.27;99158.29;223662;181;139132;-65
2023/05/28 14:54:33;;;;;;;18.60;12.60;;;;;;;23.39;32.08;99161.70;223608;181;137391;-65
2023/05/28 14:59:36;;;;;;;3.40;2.40;;;;;;;23.16;32.49;99158.27;223649;181;145045;-69
2023/05/28 15:04:41;;;;;;;5.80;2.10;;;;;;;23.00;32.55;99159.35;223584;181;140508;-67
2023/05/28 15:09:47;;;;;;;18.10;11.30;;;;;;;22.89;32.71;99162.02;223606;181;137276;-67
2023/05/28 15:14:50;;;;;;;31.00;22.60;;;;;;;22.86;32.97;99159.94;223625;181;145967;-64
2023/05/28 15:19:53;;;;;;;11.40;7.90;;;;;;;22.80;33.66;99158.71;223652;181;139190;-66
2023/05/28 15:24:57;;;;;;;6.50;3.60;;;;;;;22.68;33.65;99153.09;223661;181;136886;-66
2023/05/28 15:30:00;;;;;;;6.30;3.10;;;;;;;22.55;34.35;99155.33;223654;181;145215;-66
2023/05/28 15:35:04;;;;;;;9.50;2.30;;;;;;;22.35;34.37;99154.58;223530;181;140002;-67
2023/05/28 15:40:07;;;;;;;17.80;5.60;;;;;;;22.25;33.96;99153.44;223725;181;136625;-68
2023/05/28 15:45:11;;;;;;;15.70;4.80;;;;;;;22.18;33.89;99152.33;223733;181;146047;-65
2023/05/28 15:50:14;;;;;;;5.40;2.60;;;;;;;22.13;33.46;99146.48;223656;181;139771;-67
2023/05/28 15:55:22;;;;;;;6.10;2.30;;;;;;;22.09;33.39;99144.20;223657;182;141584;-65
2023/05/28 16:00:28;;;;;;;8.60;2.20;;;;;;;22.13;33.71;99144.86;223586;181;145022;-64
2023/05/28 16:05:31;;;;;;;6.30;2.00;;;;;;;22.15;33.78;99143.41;223586;181;138985;-64
2023/05/28 16:10:35;;;;;;;18.60;16.50;;;;;;;22.15;33.33;99141.65;223556;181;138375;-64
2023/05/28 16:15:43;;;;;;;8.80;4.40;;;;;;;22.09;34.07;99135.52;223656;181;146407;-62
2023/05/28 16:20:46;;;;;;;9.30;3.50;;;;;;;22.00;34.53;99133.06;223645;182;139329;-65
2023/05/28 16:25:50;;;;;;;7.70;2.60;;;;;;;21.95;34.83;99140.61;223586;181;140795;-64
2023/05/28 16:30:55;;;;;;;6.90;2.20;;;;;;;21.90;35.55;99140.45;223453;182;145247;-64
2023/05/28 16:35:59;;;;;;;5.50;2.10;;;;;;;21.83;35.63;99142.33;223453;182;140212;-63
2023/05/28 16:41:03;;;;;;;3.40;2.00;;;;;;;21.79;35.49;99143.89;223492;182;136872;-65
2023/05/28 16:46:07;;;;;;;4.30;1.90;;;;;;;21.75;36.38;99150.21;223497;181;145037;-65
2023/05/28 16:51:10;;;;;;;6.90;1.90;;;;;;;21.68;36.13;99148.85;223565;182;139187;-63
2023/05/28 16:56:13;;;;;;;5.90;1.70;;;;;;;21.60;35.86;99150.34;223551;181;137118;-66
2023/05/28 17:01:32;;;;;;;3.00;1.60;;;;;;;21.57;36.55;99154.55;223484;181;145883;-65
2023/05/28 17:06:38;;;;;;;27.10;23.60;;;;;;;21.52;36.72;99153.98;223479;182;140119;-64
2023/05/28 17:11:42;;;;;;;10.50;6.30;;;;;;;21.47;37.08;99154.67;223456;181;140928;-65
2023/05/28 17:16:45;;;;;;;7.60;3.20;;;;;;;21.42;37.34;99154.59;223394;183;145251;-64
2023/05/28 17:21:49;;;;;;;6.10;3.10;;;;;;;21.36;37.71;99154.52;223571;182;138559;-64
2023/05/28 17:26:52;;;;;;;5.90;2.50;;;;;;;21.28;37.67;99154.45;223567;182;137256;-63
2023/05/28 17:31:55;;;;;;;4.20;2.00;;;;;;;21.21;37.57;99151.27;223524;182;145366;-63
2023/05/28 17:36:58;;;;;;;3.80;1.90;;;;;;;21.12;37.58;99150.90;223609;182;138302;-63
2023/05/28 17:42:02;;;;;;;5.40;1.80;;;;;;;20.99;37.22;99144.32;223606;182;137255;-66
2023/05/28 17:47:05;;;;;;;4.00;1.80;;;;;;;20.82;37.51;99146.04;223602;181;146734;-68
2023/05/28 17:52:09;;;;;;;6.90;2.00;;;;;;;20.67;37.92;99140.16;223570;182;139975;-67
2023/05/28 17:57:12;;;;;;;3.60;2.10;;;;;;;20.53;38.57;99139.44;223606;181;136703;-70
2023/05/28 18:02:15;;;;;;;4.10;2.00;;;;;;;20.40;38.89;99140.25;223613;182;146532;-67
2023/05/28 18:07:19;;;;;;;5.00;1.80;;;;;;;20.38;39.65;99136.69;223548;181;138676;-68
2023/05/28 18:12:22;;;;;;;5.80;2.00;;;;;;;20.32;40.36;99142.41;223627;181;137721;-70
2023/05/28 18:17:26;;;;;;;7.70;2.20;;;;;;;20.25;40.00;99141.73;223560;181;145357;-65
2023/05/28 18:22:29;;;;;;;6.10;2.30;;;;;;;20.01;39.66;99143.27;223599;182;138889;-63
2023/05/28 18:27:32;;;;;;;3.90;2.30;;;;;;;19.80;40.29;99149.81;223682;181;136554;-70
2023/05/28 18:32:36;;;;;;;3.90;2.30;;;;;;;19.61;40.58;99151.85;223592;181;145182;-66
2023/05/28 18:37:47;;;;;;;4.90;1.90;;;;;;;19.42;40.78;99153.00;223664;182;139280;-68
2023/05/28 18:42:53;;;;;;;6.20;2.40;;;;;;;19.26;41.14;99158.08;223633;181;136522;-67
2023/05/28 18:47:56;;;;;;;4.60;2.10;;;;;;;19.13;41.31;99159.02;223582;182;145037;-68
2023/05/28 18:53:00;;;;;;;5.00;2.50;;;;;;;19.04;41.78;99159.70;223620;181;138708;-66
2023/05/28 18:58:03;;;;;;;6.40;2.40;;;;;;;18.97;41.95;99166.65;223707;182;265114;-64
2023/05/28 19:03:06;;;;;;;6.00;2.60;;;;;;;18.90;42.09;99177.05;223609;181;145005;-64
2023/05/28 19:08:10;;;;;;;6.60;2.70;;;;;;;18.85;42.62;99182.89;223649;182;139486;-65
2023/05/28 19:13:13;;;;;;;4.50;2.80;;;;;;;18.79;42.45;99178.27;223605;181;137223;-69
2023/05/28 19:18:16;;;;;;;4.30;2.40;;;;;;;18.70;42.76;99177.60;223574;181;146673;-64
2023/05/28 19:23:19;;;;;;;4.70;2.20;;;;;;;18.64;42.87;99182.27;223646;181;138394;-64
2023/05/28 19:28:23;;;;;;;8.10;2.60;;;;;;;18.56;43.02;99182.53;223602;181;136944;-62
2023/05/28 19:33:26;;;;;;;7.40;2.80;;;;;;;18.46;43.45;99184.13;223757;182;145758;-63
2023/05/28 19:38:29;;;;;;;9.00;3.00;;;;;;;18.38;44.15;99186.31;223614;181;139772;-64
2023/05/28 19:43:33;;;;;;;8.30;3.30;;;;;;;18.29;44.37;99191.48;223707;182;137188;-64
2023/05/28 19:48:36;;;;;;;6.60;3.60;;;;;;;18.22;45.00;99192.09;223569;182;145288;-66
2023/05/28 19:53:39;;;;;;;6.60;3.80;;;;;;;18.22;45.20;99193.25;223428;182;138422;-65
2023/05/28 19:58:42;;;;;;;7.70;3.90;;;;;;;18.18;45.67;99193.20;223694;182;139748;-65
2023/05/28 20:03:46;;;;;;;10.50;5.00;;;;;;;18.11;46.04;99195.26;223715;181;145314;-66
2023/05/28 20:08:49;;;;;;;10.30;3.50;;;;;;;18.04;46.27;99198.63;223679;182;139039;-67
2023/05/28 20:13:52;;;;;;;7.30;3.80;;;;;;;17.98;46.81;99204.91;223715;182;137424;-65
2023/05/28 20:19:01;;;;;;;9.10;3.80;;;;;;;17.91;47.17;99208.00;223704;182;146376;-67
2023/05/28 20:24:05;;;;;;;6.10;3.40;;;;;;;17.84;47.31;99213.34;223526;181;139386;-70
2023/05/28 20:29:08;;;;;;;9.00;3.40;;;;;;;17.80;47.39;99212.11;223693;181;137768;-66
2023/05/28 20:34:13;;;;;;;7.30;3.50;;;;;;;17.73;47.78;99214.78;223735;182;146106;-69
2023/05/28 20:39:17;;;;;;;8.70;3.60;;;;;;;17.67;47.93;99211.92;223771;182;139875;-64
2023/05/28 20:44:25;;;;;;;7.90;3.30;;;;;;;17.60;48.20;99216.63;223660;182;136479;-64
2023/05/28 20:49:29;;;;;;;10.60;3.30;;;;;;;17.55;48.54;99218.88;223715;181;145019;-63
2023/05/28 20:54:33;;;;;;;10.70;3.50;;;;;;;17.45;48.76;99221.38;223705;182;139324;-63
2023/05/28 20:59:37;;;;;;;9.10;3.80;;;;;;;17.33;48.92;99219.24;223746;182;136940;-66
2023/05/28 21:04:49;;;;;;;7.80;3.50;;;;;;;17.21;49.24;99218.84;223632;181;145721;-69
2023/05/28 21:09:52;;;;;;;10.10;4.80;;;;;;;17.11;49.39;99220.09;223716;182;139542;-67
2023/05/28 21:14:56;;;;;;;5.70;3.70;;;;;;;16.99;49.80;99223.54;223745;182;136738;-68
2023/05/28 21:19:59;;;;;;;9.20;4.00;;;;;;;16.90;50.08;99226.14;223695;181;145429;-68
2023/05/28 21:25:02;;;;;;;7.20;4.10;;;;;;;16.81;50.36;99225.63;223697;181;138526;-65
2023/05/28 21:33:34;;;;;;;5.60;3.90;;;;;;;16.69;50.73;99221.98;222178;190;666428;-64
2023/05/28 21:38:37;;;;;;;7.10;3.60;;;;;;;16.58;51.18;99217.54;223621;183;140016;-64
2023/05/28 21:43:40;;;;;;;5.70;3.40;;;;;;;16.49;51.24;99217.42;223949;180;143479;-64
2023/05/28 21:48:43;;;;;;;7.30;3.30;;;;;;;16.40;51.66;99219.19;223796;181;138871;-64
2023/05/28 21:53:46;;;;;;;8.60;3.40;;;;;;;16.32;51.97;99220.27;223870;181;138567;-65
2023/05/28 21:58:49;;;;;;;7.60;3.30;;;;;;;16.25;52.15;99224.77;223888;180;143353;-64
2023/05/28 22:03:55;;;;;;;9.40;3.40;;;;;;;16.19;52.52;99222.25;223893;180;138273;-67
2023/05/28 22:09:00;;;;;;;6.00;3.20;;;;;;;16.12;52.55;99223.86;223861;181;136519;-67
2023/05/28 22:14:03;;;;;;;4.90;3.20;;;;;;;16.05;52.95;99216.73;223671;180;143818;-65
2023/05/28 22:19:12;;;;;;;4.90;3.20;;;;;;;15.97;53.26;99215.03;223946;181;138516;-66
2023/05/28 22:24:15;;;;;;;4.50;2.90;;;;;;;15.89;53.53;99215.16;223872;181;136916;-65
2023/05/28 22:29:18;;;;;;;6.90;3.00;;;;;;;15.79;54.17;99210.77;223854;180;146232;-64
2023/05/28 22:34:21;;;;;;;5.00;2.80;;;;;;;15.73;54.15;99207.52;223744;182;139007;-68
2023/05/28 22:39:25;;;;;;;7.40;3.10;;;;;;;15.67;54.06;99210.69;223766;181;137633;-64
2023/05/28 22:44:33;;;;;;;6.50;2.90;;;;;;;15.63;54.60;99212.77;222392;181;145223;-64
2023/05/28 22:49:37;;;;;;;9.90;3.30;;;;;;;15.58;55.14;99216.20;223684;181;139512;-66
2023/05/28 22:54:40;;;;;;;6.30;3.50;;;;;;;15.53;55.42;99219.83;223633;182;136537;-64
2023/05/28 22:59:44;;;;;;;8.80;4.00;;;;;;;15.48;56.04;99219.89;223755;181;147004;-66
2023/05/28 23:04:47;;;;;;;12.00;4.50;;;;;;;15.38;56.62;99219.77;223636;181;139320;-70
2023/05/28 23:09:50;;;;;;;8.90;4.20;;;;;;;15.30;57.04;99216.13;223684;181;138235;-71
2023/05/28 23:14:53;;;;;;;10.20;3.90;;;;;;;15.24;57.21;99214.84;223729;181;145359;-65
2023/05/28 23:19:57;;;;;;;11.30;4.00;;;;;;;15.17;57.28;99209.83;223637;181;138410;-65
2023/05/28 23:25:00;;;;;;;10.90;4.00;;;;;;;15.09;57.19;99204.70;223654;181;137382;-64
2023/05/28 23:30:04;;;;;;;6.80;3.70;;;;;;;15.04;57.44;99206.90;223675;181;145707;-63
2023/05/28 23:35:08;;;;;;;10.60;3.60;;;;;;;15.01;57.64;99207.34;223681;181;138546;-63
2023/05/28 23:40:12;;;;;;;5.90;3.00;;;;;;;14.94;57.81;99211.77;223758;181;136860;-65
2023/05/28 23:45:15;;;;;;;6.60;2.90;;;;;;;14.88;57.51;99213.13;223630;181;146025;-64
2023/05/28 23:50:18;;;;;;;7.60;2.90;;;;;;;14.82;57.33;99212.69;223662;181;138657;-65
2023/05/28 23:55:22;;;;;;;5.70;2.70;;;;;;;14.83;57.30;99214.24;223633;181;135989;-65
